Aiwamaru — JD2602 — position and weather

sailwx.info

Track history (hours):
 
Tides and Currents Weather Stations Pressure Air Temp Water Temp Dewpoint Dewpoint Depression Visibility Wind Speed Wind Dir Waves Ship Positions

Aiwamaru

Last reported at 2015-Mar-31 07:20 UTC. Time now 2015-Apr-02 03:11 UTC.
Position N 34°08' E 134°58'.

Length 64 m; draft 4.8 m.

Type: Tanker. MMSI: 431000508.

Date/timePositionNaut miles runAvg speedWind from/ knotsBaromVisibWave heightAir tempDewpointWater temp
2015-Mar-31 07:20N 34°08' E 134°58'9 7.4
2015-Mar-31 06:07N 34°07' E 135°09'8 4.5
2015-Mar-31 04:27N 34°01' E 135°03'  
2015-Mar-27 10:14N 34°37' E 134°54'710.4
2015-Mar-27 09:31N 34°36' E 135°03'1111.3
2015-Mar-27 08:33N 34°25' E 135°03'1212.1
2015-Mar-27 07:33N 34°14' E 134°60'1312.2
2015-Mar-27 06:29N 34°01' E 135°01'23610.3
2015-Mar-26 07:33N 35°04' E 139°38'1212.2
2015-Mar-26 06:33N 35°15' E 139°46'1110.9
2015-Mar-26 05:33N 35°25' E 139°44'1312.7
2015-Mar-26 04:33N 35°34' E 139°55'7 6.8
2015-Mar-26 03:33N 35°41' E 139°57'0 0.0
2015-Mar-26 02:33N 35°41' E 139°57'0 0.0
2015-Mar-26 01:33N 35°41' E 139°57'0 0.0
2015-Mar-26 00:34N 35°41' E 139°57'1 1.2
2015-Mar-25 23:33N 35°40' E 139°57'4 4.3
2015-Mar-25 22:33N 35°36' E 139°55'0 0.0
2015-Mar-25 21:33N 35°36' E 139°55'0 0.0
2015-Mar-25 20:33N 35°36' E 139°55'0 0.0
2015-Mar-25 19:33N 35°36' E 139°55'0 0.0
2015-Mar-25 18:34N 35°36' E 139°55'0 0.0
2015-Mar-25 17:34N 35°36' E 139°55'0 0.0
2015-Mar-25 16:33N 35°36' E 139°55'0 0.0
2015-Mar-25 15:33N 35°36' E 139°55'0 0.0
2015-Mar-25 14:32N 35°36' E 139°55'0 0.0
2015-Mar-25 13:33N 35°36' E 139°55'0 0.0
2015-Mar-25 12:33N 35°36' E 139°55'0 0.0
2015-Mar-25 11:32N 35°36' E 139°55'10 9.8
2015-Mar-25 10:33N 35°27' E 139°50'1010.4
2015-Mar-25 09:34N 35°18' E 139°45'1111.1
2015-Mar-25 08:33N 35°07' E 139°45'1312.1
2015-Mar-25 07:28N 34°58' E 139°33'239 7.2
2015-Mar-23 22:19N 34°37' E 134°44'  
Track history (hours):
 
Tides and Currents Weather Stations Pressure Air Temp Water Temp Dewpoint Dewpoint Depression Visibility Wind Speed Wind Dir Waves Ship Positions

Aiwamaru

Last reported at 2015-Mar-31 07:20 UTC. Time now 2015-Apr-02 03:11 UTC.
Position N 34°08' E 134°58'.

Length 64 m; draft 4.8 m.

Type: Tanker. MMSI: 431000508.

Date/timePositionNaut miles runAvg speedWind from/ knotsBaromVisibWave heightAir tempDewpointWater temp
2015-Mar-31 07:20N 34°08' E 134°58'9 7.4
2015-Mar-31 06:07N 34°07' E 135°09'8 4.5
2015-Mar-31 04:27N 34°01' E 135°03'  
2015-Mar-27 10:14N 34°37' E 134°54'710.4
2015-Mar-27 09:31N 34°36' E 135°03'1111.3
2015-Mar-27 08:33N 34°25' E 135°03'1212.1
2015-Mar-27 07:33N 34°14' E 134°60'1312.2
2015-Mar-27 06:29N 34°01' E 135°01'23610.3
2015-Mar-26 07:33N 35°04' E 139°38'1212.2
2015-Mar-26 06:33N 35°15' E 139°46'1110.9
2015-Mar-26 05:33N 35°25' E 139°44'1312.7
2015-Mar-26 04:33N 35°34' E 139°55'7 6.8
2015-Mar-26 03:33N 35°41' E 139°57'0 0.0
2015-Mar-26 02:33N 35°41' E 139°57'0 0.0
2015-Mar-26 01:33N 35°41' E 139°57'0 0.0
2015-Mar-26 00:34N 35°41' E 139°57'1 1.2
2015-Mar-25 23:33N 35°40' E 139°57'4 4.3
2015-Mar-25 22:33N 35°36' E 139°55'0 0.0
2015-Mar-25 21:33N 35°36' E 139°55'0 0.0
2015-Mar-25 20:33N 35°36' E 139°55'0 0.0
2015-Mar-25 19:33N 35°36' E 139°55'0 0.0
2015-Mar-25 18:34N 35°36' E 139°55'0 0.0
2015-Mar-25 17:34N 35°36' E 139°55'0 0.0
2015-Mar-25 16:33N 35°36' E 139°55'0 0.0
2015-Mar-25 15:33N 35°36' E 139°55'0 0.0
2015-Mar-25 14:32N 35°36' E 139°55'0 0.0
2015-Mar-25 13:33N 35°36' E 139°55'0 0.0
2015-Mar-25 12:33N 35°36' E 139°55'0 0.0
2015-Mar-25 11:32N 35°36' E 139°55'10 9.8
2015-Mar-25 10:33N 35°27' E 139°50'1010.4
2015-Mar-25 09:34N 35°18' E 139°45'1111.1
2015-Mar-25 08:33N 35°07' E 139°45'1312.1
2015-Mar-25 07:28N 34°58' E 139°33'239 7.2
2015-Mar-23 22:19N 34°37' E 134°44'  

Dump ship's entire track history